createdAt,value
2023-05-10T00:04:13.821Z,6.45
2023-05-10T00:09:35.506Z,6.32
2023-05-10T00:15:45.019Z,6.21
2023-05-10T00:21:59.904Z,6.08
2023-05-10T00:28:24.721Z,5.93
2023-05-10T00:34:29.379Z,5.83
2023-05-10T00:40:05.803Z,5.65
2023-05-10T00:46:18.812Z,5.58
2023-05-10T00:52:14.301Z,5.42
2023-05-10T00:58:42.205Z,5.38
2023-05-10T01:04:50.920Z,5.27
2023-05-10T01:10:36.665Z,5.19
2023-05-10T01:16:14.675Z,5.15
2023-05-10T01:22:44.154Z,5.09
2023-05-10T01:29:20.670Z,4.88
2023-05-10T01:35:22.332Z,4.67
2023-05-10T01:41:24.366Z,4.66
2023-05-10T01:46:40.062Z,4.74
2023-05-10T01:52:48.123Z,4.53
2023-05-10T01:58:48.647Z,4.78
2023-05-10T02:04:58.429Z,4.81
2023-05-10T02:10:34.811Z,4.76
2023-05-10T02:16:27.105Z,4.63
2023-05-10T02:21:34.272Z,4.63
2023-05-10T02:27:39.033Z,4.68
2023-05-10T02:34:02.982Z,4.70
2023-05-10T02:39:44.745Z,4.83
2023-05-10T02:45:38.543Z,4.83
2023-05-10T02:51:17.218Z,4.82
2023-05-10T02:57:10.715Z,4.70
2023-05-10T03:02:21.802Z,4.64
2023-05-10T03:07:54.568Z,4.58
2023-05-10T03:13:37.938Z,4.50
2023-05-10T03:19:52.727Z,4.55
2023-05-10T03:26:07.543Z,4.50
2023-05-10T03:32:34.559Z,4.57
2023-05-10T03:39:00.440Z,4.47
2023-05-10T03:45:42.293Z,4.63
2023-05-10T03:52:16.025Z,4.83
2023-05-10T03:58:13.877Z,4.88
2023-05-10T04:04:38.538Z,5.08
2023-05-10T04:11:22.760Z,5.29
2023-05-10T04:17:48.752Z,5.48
2023-05-10T04:24:04.773Z,5.82
2023-05-10T04:30:42.930Z,5.91
2023-05-10T04:37:37.815Z,6.46
2023-05-10T04:43:54.844Z,7.16
2023-05-10T04:50:20.705Z,8.95
2023-05-10T04:56:28.582Z,10.55
2023-05-10T05:02:41.707Z,11.76
2023-05-10T05:08:55.722Z,12.07
2023-05-10T05:15:24.736Z,11.86
2023-05-10T05:21:55.543Z,11.61
2023-05-10T05:28:20.217Z,12.17
2023-05-10T05:34:49.859Z,12.68
2023-05-10T05:41:03.646Z,13.01
2023-05-10T05:47:28.450Z,13.20
2023-05-10T05:53:53.302Z,13.31
2023-05-10T06:00:11.038Z,14.28
2023-05-10T06:06:20.364Z,15.47
2023-05-10T06:12:44.412Z,15.26
2023-05-10T06:18:42.228Z,15.63
2023-05-10T06:24:40.315Z,16.14
2023-05-10T06:30:38.366Z,16.35
2023-05-10T06:36:03.550Z,16.40
2023-05-10T06:41:47.164Z,16.58
2023-05-10T06:47:31.205Z,16.98
2023-05-10T06:53:28.509Z,17.00
2023-05-10T06:59:25.753Z,18.28
2023-05-10T07:05:37.392Z,17.94
2023-05-10T07:11:41.620Z,18.16
2023-05-10T07:17:06.228Z,18.37
2023-05-10T07:23:05.893Z,18.64
2023-05-10T07:28:38.560Z,19.35
2023-05-10T07:34:38.447Z,19.41
2023-05-10T07:41:02.756Z,19.47
2023-05-10T07:47:20.876Z,19.80
2023-05-10T07:53:22.130Z,19.65
2023-05-10T07:59:19.252Z,20.05
2023-05-10T08:05:01.426Z,19.82
2023-05-10T08:10:39.411Z,20.36
2023-05-10T08:15:56.591Z,21.08
2023-05-10T08:21:52.701Z,20.84
2023-05-10T08:27:53.083Z,19.94
2023-05-10T08:33:46.599Z,20.12
2023-05-10T08:39:39.625Z,20.49
2023-05-10T08:45:48.942Z,20.06
2023-05-10T08:52:12.969Z,19.88
2023-05-10T08:57:38.869Z,19.01
2023-05-10T09:03:56.685Z,19.35
2023-05-10T09:09:22.768Z,19.39
2023-05-10T09:15:28.686Z,18.92
2023-05-10T09:28:47.349Z,18.57
2023-05-10T09:34:02.410Z,18.74
2023-05-10T09:39:31.963Z,18.90
2023-05-10T09:45:32.356Z,18.55
2023-05-10T09:51:56.095Z,18.54
2023-05-10T09:58:16.712Z,18.38
2023-05-10T10:04:42.297Z,18.64
2023-05-10T10:24:29.424Z,18.53
2023-05-10T10:30:27.498Z,18.33
2023-05-10T10:44:02.725Z,18.48
2023-05-10T10:50:30.825Z,18.54
2023-05-10T10:56:48.877Z,18.77
2023-05-10T11:02:43.334Z,18.31
2023-05-10T11:09:02.976Z,18.32
2023-05-10T11:14:41.417Z,18.60
2023-05-10T11:20:27.948Z,18.71
2023-05-10T11:26:24.826Z,18.22
2023-05-10T11:32:16.557Z,17.95
2023-05-10T11:38:05.361Z,18.40
2023-05-10T11:43:40.461Z,18.96
2023-05-10T11:49:08.034Z,18.45
2023-05-10T11:55:04.576Z,18.55
2023-05-10T12:00:28.432Z,19.02
2023-05-10T12:06:06.228Z,18.68
2023-05-10T12:11:19.123Z,18.45
2023-05-10T12:16:57.162Z,18.47
2023-05-10T12:22:13.848Z,18.51
2023-05-10T12:27:52.757Z,18.64
2023-05-10T12:33:30.854Z,18.84
2023-05-10T12:39:09.658Z,18.92
2023-05-10T12:44:24.077Z,18.55
2023-05-10T12:49:56.142Z,18.37
2023-05-10T12:55:17.129Z,18.58
2023-05-10T13:00:23.583Z,18.55
2023-05-10T13:05:34.823Z,18.93
2023-05-10T13:10:48.988Z,18.92
2023-05-10T13:16:51.568Z,19.03
2023-05-10T13:21:59.278Z,18.76
2023-05-10T13:27:19.042Z,19.03
2023-05-10T13:32:26.955Z,19.20
2023-05-10T13:37:36.686Z,18.81
2023-05-10T13:42:40.841Z,18.97
2023-05-10T13:47:44.538Z,19.21
2023-05-10T13:52:53.381Z,18.89
2023-05-10T13:57:57.299Z,18.92
2023-05-10T14:03:00.875Z,18.86
2023-05-10T14:08:05.320Z,18.79
2023-05-10T14:13:09.155Z,18.78
2023-05-10T14:18:12.770Z,18.76
2023-05-10T14:23:16.846Z,18.84
2023-05-10T14:28:20.558Z,19.12
2023-05-10T14:33:33.516Z,18.96
2023-05-10T14:38:37.190Z,18.77
2023-05-10T14:43:50.566Z,18.88
2023-05-10T14:48:55.132Z,19.10
2023-05-10T14:54:01.745Z,19.26
2023-05-10T14:59:05.336Z,19.04
2023-05-10T15:04:09.613Z,19.02
2023-05-10T15:09:13.631Z,19.13
2023-05-10T15:14:17.104Z,18.90
2023-05-10T15:19:21.767Z,18.89
2023-05-10T15:24:26.033Z,18.86
2023-05-10T15:29:35.786Z,18.79
2023-05-10T15:34:39.957Z,18.81
2023-05-10T15:39:44.067Z,18.67
2023-05-10T15:45:21.622Z,18.52
2023-05-10T15:50:25.478Z,18.36
2023-05-10T15:55:52.548Z,18.48
2023-05-10T16:00:56.172Z,18.37
2023-05-10T16:06:01.365Z,18.28
2023-05-10T16:11:05.613Z,18.32
2023-05-10T16:16:20.173Z,18.32
2023-05-10T16:21:34.480Z,18.11
2023-05-10T16:26:41.319Z,18.26
2023-05-10T16:31:45.440Z,18.16
2023-05-10T16:36:49.972Z,18.20
2023-05-10T16:41:59.782Z,18.19
2023-05-10T16:47:09.212Z,18.16
2023-05-10T16:52:13.414Z,18.04
2023-05-10T16:58:10.932Z,17.97
2023-05-10T17:03:22.672Z,17.84
2023-05-10T17:08:30.355Z,17.68
2023-05-10T17:14:20.323Z,17.63
2023-05-10T17:20:28.277Z,17.49
2023-05-10T17:25:42.310Z,17.45
2023-05-10T17:31:49.749Z,17.39
2023-05-10T17:37:57.653Z,17.25
2023-05-10T17:44:22.700Z,16.92
2023-05-10T17:50:46.219Z,16.75
2023-05-10T17:57:12.868Z,16.63
2023-05-10T18:03:10.604Z,16.47
2023-05-10T18:09:20.608Z,16.39
2023-05-10T18:15:29.963Z,16.20
2023-05-10T18:20:47.580Z,15.99
2023-05-10T18:26:09.353Z,15.83
2023-05-10T18:31:16.640Z,15.57
2023-05-10T18:37:20.392Z,15.49
2023-05-10T18:43:34.125Z,15.37
2023-05-10T18:49:06.673Z,15.17
2023-05-10T18:54:15.554Z,14.93
2023-05-10T18:59:20.675Z,14.71
2023-05-10T19:04:28.214Z,14.64
2023-05-10T19:09:37.510Z,14.47
2023-05-10T19:14:45.051Z,14.41
2023-05-10T19:19:49.269Z,14.21
2023-05-10T19:24:53.814Z,14.08
2023-05-10T19:30:02.282Z,13.97
2023-05-10T19:35:24.146Z,13.85
2023-05-10T19:40:28.124Z,13.76
2023-05-10T19:45:37.291Z,13.69
2023-05-10T19:50:40.780Z,13.70
2023-05-10T19:55:47.810Z,13.72
2023-05-10T20:01:08.115Z,13.56
2023-05-10T20:06:12.391Z,13.41
2023-05-10T20:11:16.241Z,13.05
2023-05-10T20:16:19.655Z,12.95
2023-05-10T20:21:24.048Z,12.98
2023-05-10T20:26:35.196Z,12.79
2023-05-10T20:31:39.111Z,12.71
2023-05-10T20:36:45.917Z,12.62
2023-05-10T20:41:49.725Z,12.37
2023-05-10T20:46:56.322Z,12.47
2023-05-10T20:51:59.874Z,12.27
2023-05-10T20:57:12.859Z,12.30
2023-05-10T21:02:18.885Z,12.15
2023-05-10T21:08:05.524Z,12.27
2023-05-10T21:13:41.890Z,12.22
2023-05-10T21:18:51.975Z,12.05
2023-05-10T21:23:58.488Z,11.81
2023-05-10T21:29:02.740Z,11.67
2023-05-10T21:34:09.921Z,11.78
2023-05-10T21:39:13.496Z,11.55
2023-05-10T21:44:26.936Z,11.49
2023-05-10T21:49:53.779Z,11.29
2023-05-10T21:55:57.973Z,11.16
2023-05-10T22:01:01.638Z,10.94
2023-05-10T22:06:08.672Z,10.74
2023-05-10T22:11:32.192Z,10.66
2023-05-10T22:16:35.861Z,10.50
2023-05-10T22:21:39.238Z,10.35
2023-05-10T22:26:47.786Z,10.31
2023-05-10T22:32:08.927Z,10.19
2023-05-10T22:37:34.935Z,10.04
2023-05-10T22:42:53.506Z,9.84
2023-05-10T22:47:56.751Z,9.86
2023-05-10T22:53:23.362Z,9.69
2023-05-10T22:58:30.180Z,9.34
2023-05-10T23:03:53.986Z,9.21
2023-05-10T23:08:57.655Z,9.20
2023-05-10T23:14:01.172Z,8.96
2023-05-10T23:19:09.704Z,8.91
2023-05-10T23:24:13.750Z,8.81
2023-05-10T23:29:26.414Z,8.60
2023-05-10T23:34:30.036Z,8.53
2023-05-10T23:39:34.097Z,8.57
2023-05-10T23:44:37.792Z,8.65
2023-05-10T23:49:46.947Z,8.68
2023-05-10T23:54:56.295Z,8.57
